createdAt,value
2023-04-12T00:02:50.000Z,2.25
2023-04-12T00:07:42.908Z,2.40
2023-04-12T00:12:34.931Z,2.85
2023-04-12T00:17:27.044Z,4.17
2023-04-12T00:22:18.855Z,2.00
2023-04-12T00:27:10.786Z,2.78
2023-04-12T00:32:04.023Z,3.50
2023-04-12T00:36:56.721Z,2.63
2023-04-12T00:41:48.676Z,2.90
2023-04-12T00:46:41.845Z,2.80
2023-04-12T00:51:33.832Z,2.55
2023-04-12T00:56:28.065Z,1.88
2023-04-12T01:01:21.750Z,3.10
2023-04-12T01:06:30.008Z,1.67
2023-04-12T01:11:45.106Z,2.20
2023-04-12T01:16:51.502Z,3.05
2023-04-12T01:22:08.495Z,3.58
2023-04-12T01:27:02.199Z,2.30
2023-04-12T01:31:58.499Z,2.45
2023-04-12T01:36:51.175Z,2.13
2023-04-12T01:41:45.674Z,3.00
2023-04-12T01:46:37.578Z,3.55
2023-04-12T01:51:38.480Z,2.00
2023-04-12T01:56:31.944Z,2.55
2023-04-12T02:01:24.329Z,2.47
2023-04-12T02:06:18.221Z,2.30
2023-04-12T02:11:13.551Z,2.85
2023-04-12T02:16:05.818Z,1.92
2023-04-12T02:20:59.167Z,2.92
2023-04-12T02:25:51.129Z,1.80
2023-04-12T02:30:43.313Z,2.37
2023-04-12T02:35:37.789Z,1.50
2023-04-12T02:40:40.860Z,2.03
2023-04-12T02:45:34.472Z,2.17
2023-04-12T02:55:27.208Z,2.50
2023-04-12T03:00:20.188Z,2.83
2023-04-12T03:05:18.519Z,2.83
2023-04-12T03:10:13.744Z,2.27
2023-04-12T03:15:11.033Z,1.85
2023-04-12T03:20:07.789Z,2.78
2023-04-12T03:24:59.686Z,2.70
2023-04-12T03:29:52.445Z,1.65
2023-04-12T03:34:47.434Z,2.28
2023-04-12T03:39:45.030Z,2.03
2023-04-12T03:44:37.974Z,2.88
2023-04-12T03:49:38.442Z,2.58
2023-04-12T03:54:35.253Z,1.88
2023-04-12T03:59:32.871Z,2.25
2023-04-12T04:04:26.294Z,2.22
2023-04-12T04:09:22.354Z,2.83
2023-04-12T04:14:16.528Z,2.17
2023-04-12T04:19:08.891Z,2.33
2023-04-12T04:24:04.296Z,1.52
2023-04-12T04:29:04.801Z,1.85
2023-04-12T04:34:03.432Z,2.45
2023-04-12T04:38:57.507Z,2.45
2023-04-12T04:44:01.479Z,1.98
2023-04-12T04:48:56.737Z,1.67
2023-04-12T04:53:48.865Z,1.60
2023-04-12T04:58:42.445Z,2.63
2023-04-12T05:03:35.215Z,2.88
2023-04-12T05:08:28.694Z,2.50
2023-04-12T05:13:22.356Z,1.73
2023-04-12T05:18:15.143Z,3.10
2023-04-12T05:23:06.994Z,2.28
2023-04-12T05:27:59.121Z,2.80
2023-04-12T05:32:51.105Z,1.60
2023-04-12T05:37:44.375Z,2.00
2023-04-12T05:42:38.605Z,1.52
2023-04-12T05:47:30.599Z,1.88
2023-04-12T05:52:22.453Z,1.75
2023-04-12T05:57:17.759Z,1.80
2023-04-12T06:02:12.580Z,1.88
2023-04-12T06:07:05.714Z,2.23
2023-04-12T06:16:49.618Z,12.98
2023-04-12T06:21:41.462Z,12.65
2023-04-12T06:26:39.837Z,6.22
2023-04-12T06:31:33.068Z,33.58
2023-04-12T06:36:26.245Z,23.90
2023-04-12T06:41:18.027Z,30.65
2023-04-12T06:46:10.046Z,27.67
2023-04-12T06:51:01.921Z,20.15
2023-04-12T06:55:54.005Z,23.95
2023-04-12T07:00:45.886Z,30.33
2023-04-12T07:05:39.295Z,31.77
2023-04-12T07:10:31.278Z,29.58
2023-04-12T07:15:23.176Z,28.25
2023-04-12T07:20:15.272Z,29.58
2023-04-12T07:25:10.910Z,34.05
2023-04-12T07:30:03.699Z,23.15
2023-04-12T07:34:55.906Z,20.92
2023-04-12T07:39:47.866Z,23.07
2023-04-12T07:44:39.898Z,89.93
2023-04-12T07:49:31.803Z,64.55
2023-04-12T07:54:26.918Z,40.38
2023-04-12T07:59:18.837Z,33.08
2023-04-12T08:04:10.928Z,29.80
2023-04-12T08:09:02.873Z,29.67
2023-04-12T08:13:54.907Z,31.52
2023-04-12T08:18:46.808Z,44.63
2023-04-12T08:23:38.634Z,32.70
2023-04-12T08:28:31.405Z,30.95
2023-04-12T08:33:23.378Z,27.27
2023-04-12T08:38:15.782Z,29.48
2023-04-12T08:43:12.765Z,26.47
2023-04-12T08:48:06.442Z,28.45
2023-04-12T08:52:59.170Z,28.35
2023-04-12T08:57:55.124Z,26.85
2023-04-12T09:02:49.139Z,27.15
2023-04-12T09:07:41.892Z,34.97
2023-04-12T09:12:33.952Z,27.40
2023-04-12T09:17:27.659Z,28.58
2023-04-12T09:22:19.637Z,24.15
2023-04-12T09:27:11.591Z,26.63
2023-04-12T09:32:07.930Z,26.00
2023-04-12T09:37:00.079Z,25.20
2023-04-12T09:42:04.809Z,25.40
2023-04-12T09:46:57.366Z,31.90
2023-04-12T09:51:52.715Z,27.35
2023-04-12T09:56:45.543Z,23.92
2023-04-12T10:01:41.324Z,25.27
2023-04-12T10:06:34.048Z,24.23
2023-04-12T10:11:28.244Z,21.60
2023-04-12T10:16:21.233Z,22.65
2023-04-12T10:26:05.569Z,19.45
2023-04-12T10:31:00.391Z,20.02
2023-04-12T10:36:03.118Z,19.97
2023-04-12T10:41:16.325Z,18.08
2023-04-12T10:46:08.448Z,18.08
2023-04-12T10:51:31.090Z,17.60
2023-04-12T10:56:44.617Z,19.50
2023-04-12T11:01:43.354Z,17.85
2023-04-12T11:06:47.510Z,15.93
2023-04-12T11:12:03.993Z,20.23
2023-04-12T11:17:17.223Z,16.10
2023-04-12T11:27:04.726Z,14.52
2023-04-12T11:31:56.592Z,17.35
2023-04-12T11:36:55.214Z,15.35
2023-04-12T11:41:48.049Z,13.13
2023-04-12T11:46:40.554Z,13.15
2023-04-12T11:51:33.772Z,12.63
2023-04-12T12:01:20.031Z,15.17
2023-04-12T12:06:12.828Z,14.88
2023-04-12T12:11:08.387Z,12.50
2023-04-12T12:16:00.767Z,15.50
2023-04-12T12:20:52.764Z,17.63
2023-04-12T12:25:47.426Z,25.67
2023-04-12T12:30:40.270Z,31.25
2023-04-12T12:35:34.849Z,29.77
2023-04-12T12:40:32.590Z,26.13
2023-04-12T12:45:27.301Z,23.40
2023-04-12T12:50:22.039Z,23.60
2023-04-12T12:55:16.349Z,30.00
2023-04-12T13:00:10.063Z,30.80
2023-04-12T13:05:03.275Z,26.33
2023-04-12T13:09:55.354Z,23.48
2023-04-12T13:14:47.181Z,25.05
2023-04-12T13:19:39.006Z,22.67
2023-04-12T13:24:30.898Z,24.85
2023-04-12T13:29:22.769Z,22.27
2023-04-12T13:34:14.782Z,18.65
2023-04-12T13:39:06.660Z,20.13
2023-04-12T13:43:58.869Z,16.50
2023-04-12T13:48:51.668Z,19.47
2023-04-12T13:53:43.750Z,15.90
2023-04-12T13:58:35.787Z,18.23
2023-04-12T14:03:27.759Z,16.10
2023-04-12T14:08:19.620Z,16.00
2023-04-12T14:13:11.417Z,20.25
2023-04-12T14:18:03.345Z,18.77
2023-04-12T14:22:55.185Z,15.65
2023-04-12T14:27:47.032Z,14.63
2023-04-12T14:32:39.161Z,13.70
2023-04-12T14:37:32.989Z,19.10
2023-04-12T14:42:24.837Z,15.02
2023-04-12T14:47:16.810Z,16.67
2023-04-12T14:52:08.895Z,14.57
2023-04-12T14:57:00.797Z,13.60
2023-04-12T15:01:53.449Z,16.20
2023-04-12T15:06:45.436Z,14.48
2023-04-12T15:11:38.360Z,18.83
2023-04-12T15:16:31.480Z,12.50
2023-04-12T15:21:23.371Z,16.77
2023-04-12T15:26:15.993Z,14.27
2023-04-12T15:31:09.698Z,19.48
2023-04-12T15:36:02.730Z,17.95
2023-04-12T15:41:00.142Z,15.00
2023-04-12T15:45:56.272Z,14.60
2023-04-12T15:50:51.372Z,15.93
2023-04-12T15:55:44.995Z,13.10
2023-04-12T16:00:38.699Z,13.40
2023-04-12T16:05:31.249Z,11.70
2023-04-12T16:10:24.722Z,12.30
2023-04-12T16:15:17.693Z,11.88
2023-04-12T16:20:12.871Z,16.38
2023-04-12T16:25:06.577Z,12.48
2023-04-12T16:29:59.608Z,9.00
2023-04-12T16:39:46.230Z,8.77
2023-04-12T16:44:38.583Z,11.00
2023-04-12T16:49:30.947Z,10.87
2023-04-12T16:54:22.873Z,8.60
2023-04-12T16:59:15.901Z,13.82
2023-04-12T17:04:08.078Z,22.50
2023-04-12T17:09:00.585Z,10.40
2023-04-12T17:13:52.777Z,11.18
2023-04-12T17:18:46.127Z,9.80
2023-04-12T17:23:38.824Z,8.32
2023-04-12T17:28:31.026Z,8.98
2023-04-12T17:33:23.128Z,10.10
2023-04-12T17:38:15.150Z,11.83
2023-04-12T17:43:07.198Z,7.15
2023-04-12T17:47:59.089Z,10.85
2023-04-12T17:52:50.997Z,9.27
2023-04-12T17:57:44.399Z,8.52
2023-04-12T18:02:36.965Z,9.25
2023-04-12T18:07:30.545Z,16.80
2023-04-12T18:12:22.440Z,7.18
2023-04-12T18:17:14.521Z,8.98
2023-04-12T18:22:06.797Z,9.20
2023-04-12T18:26:59.442Z,9.13
2023-04-12T18:31:51.695Z,11.48
2023-04-12T18:36:44.309Z,9.40
2023-04-12T18:41:36.640Z,13.35
2023-04-12T18:46:29.690Z,9.87
2023-04-12T18:51:23.328Z,8.13
2023-04-12T18:56:18.410Z,8.10
2023-04-12T19:01:10.445Z,8.35
2023-04-12T19:06:04.521Z,10.80
2023-04-12T19:10:56.616Z,8.52
2023-04-12T19:15:48.937Z,6.80
2023-04-12T19:20:41.181Z,8.30
2023-04-12T19:25:34.717Z,8.37
2023-04-12T19:30:27.206Z,10.43
2023-04-12T19:35:19.112Z,8.55
2023-04-12T19:40:12.656Z,9.55
2023-04-12T19:45:04.861Z,6.88
2023-04-12T19:49:56.893Z,5.95
2023-04-12T19:54:48.982Z,9.20
2023-04-12T19:59:40.853Z,8.03
2023-04-12T20:04:33.584Z,8.60
2023-04-12T20:09:26.432Z,8.00
2023-04-12T20:14:18.667Z,7.75
2023-04-12T20:19:11.126Z,8.40
2023-04-12T20:24:04.076Z,6.57
2023-04-12T20:33:48.429Z,6.82
2023-04-12T20:38:40.771Z,6.17
2023-04-12T20:43:46.726Z,6.10
2023-04-12T20:48:38.625Z,7.93
2023-04-12T20:53:30.653Z,8.15
2023-04-12T20:58:24.126Z,6.95
2023-04-12T21:03:16.088Z,5.60
2023-04-12T21:25:27.939Z,5.97
2023-04-12T21:30:20.636Z,7.05
2023-04-12T21:35:14.265Z,6.28
2023-04-12T21:40:10.338Z,8.63
2023-04-12T21:45:03.239Z,6.43
2023-04-12T21:49:55.328Z,6.38
2023-04-12T21:54:47.422Z,7.57
2023-04-12T22:00:36.549Z,6.80
2023-04-12T22:06:32.181Z,7.18
2023-04-12T22:23:18.400Z,6.35
2023-04-12T22:28:12.514Z,6.30
2023-04-12T22:33:04.352Z,7.82
2023-04-12T22:37:56.840Z,4.90
2023-04-12T22:42:48.731Z,6.13
2023-04-12T22:47:41.729Z,5.05
2023-04-12T22:57:25.724Z,5.53
2023-04-12T23:02:17.745Z,4.80
2023-04-12T23:07:12.903Z,5.90
2023-04-12T23:12:06.545Z,5.60
2023-04-12T23:16:58.423Z,5.53
2023-04-12T23:21:50.351Z,5.80
2023-04-12T23:26:42.617Z,5.10
2023-04-12T23:31:34.555Z,4.90
2023-04-12T23:36:26.479Z,5.15
2023-04-12T23:41:18.504Z,5.07
2023-04-12T23:46:10.504Z,5.17
2023-04-12T23:51:02.346Z,6.05
2023-04-12T23:55:54.466Z,4.97
